sensor_id;sensor_type;location;lat;lon;timestamp;P1;durP1;ratioP1;P2;durP2;ratioP2
43042;SDS011;28667;50.758;6.096;2023-02-15T00:01:31;20.42;;;9.45;;
43042;SDS011;28667;50.758;6.096;2023-02-15T00:03:58;17.90;;;9.10;;
43042;SDS011;28667;50.758;6.096;2023-02-15T00:06:24;21.40;;;8.73;;
43042;SDS011;28667;50.758;6.096;2023-02-15T00:08:50;24.23;;;8.68;;
43042;SDS011;28667;50.758;6.096;2023-02-15T00:11:16;22.55;;;8.48;;
43042;SDS011;28667;50.758;6.096;2023-02-15T00:14:04;24.67;;;9.75;;
43042;SDS011;28667;50.758;6.096;2023-02-15T00:16:41;27.08;;;8.90;;
43042;SDS011;28667;50.758;6.096;2023-02-15T00:19:08;22.42;;;9.15;;
43042;SDS011;28667;50.758;6.096;2023-02-15T00:21:35;22.60;;;9.52;;
43042;SDS011;28667;50.758;6.096;2023-02-15T00:24:02;20.65;;;8.45;;
43042;SDS011;28667;50.758;6.096;2023-02-15T00:26:30;22.02;;;9.27;;
43042;SDS011;28667;50.758;6.096;2023-02-15T00:28:56;25.08;;;8.98;;
43042;SDS011;28667;50.758;6.096;2023-02-15T00:31:26;23.50;;;9.75;;
43042;SDS011;28667;50.758;6.096;2023-02-15T00:33:54;24.35;;;9.90;;
43042;SDS011;28667;50.758;6.096;2023-02-15T00:36:20;23.08;;;8.98;;
43042;SDS011;28667;50.758;6.096;2023-02-15T00:38:47;20.48;;;7.95;;
43042;SDS011;28667;50.758;6.096;2023-02-15T00:41:13;17.58;;;8.82;;
43042;SDS011;28667;50.758;6.096;2023-02-15T00:43:38;18.42;;;8.73;;
43042;SDS011;28667;50.758;6.096;2023-02-15T00:46:04;23.63;;;8.35;;
43042;SDS011;28667;50.758;6.096;2023-02-15T00:48:31;25.20;;;9.40;;
43042;SDS011;28667;50.758;6.096;2023-02-15T00:50:57;19.77;;;8.10;;
43042;SDS011;28667;50.758;6.096;2023-02-15T00:53:25;19.33;;;9.30;;
43042;SDS011;28667;50.758;6.096;2023-02-15T00:55:51;23.08;;;10.90;;
43042;SDS011;28667;50.758;6.096;2023-02-15T00:58:18;27.77;;;10.40;;
43042;SDS011;28667;50.758;6.096;2023-02-15T01:00:44;20.25;;;9.02;;
43042;SDS011;28667;50.758;6.096;2023-02-15T01:03:12;20.75;;;10.25;;
43042;SDS011;28667;50.758;6.096;2023-02-15T01:05:39;21.25;;;8.27;;
43042;SDS011;28667;50.758;6.096;2023-02-15T01:08:05;19.88;;;8.77;;
43042;SDS011;28667;50.758;6.096;2023-02-15T01:10:31;21.15;;;9.98;;
43042;SDS011;28667;50.758;6.096;2023-02-15T01:12:59;16.70;;;7.63;;
43042;SDS011;28667;50.758;6.096;2023-02-15T01:15:25;22.13;;;9.35;;
43042;SDS011;28667;50.758;6.096;2023-02-15T01:17:51;22.33;;;9.43;;
43042;SDS011;28667;50.758;6.096;2023-02-15T01:20:20;20.70;;;8.90;;
43042;SDS011;28667;50.758;6.096;2023-02-15T01:22:51;22.52;;;9.48;;
43042;SDS011;28667;50.758;6.096;2023-02-15T01:25:18;22.27;;;8.65;;
43042;SDS011;28667;50.758;6.096;2023-02-15T01:27:47;23.52;;;9.35;;
43042;SDS011;28667;50.758;6.096;2023-02-15T01:30:13;24.77;;;8.30;;
43042;SDS011;28667;50.758;6.096;2023-02-15T01:32:40;22.80;;;9.13;;
43042;SDS011;28667;50.758;6.096;2023-02-15T01:35:07;21.17;;;9.05;;
43042;SDS011;28667;50.758;6.096;2023-02-15T01:37:33;21.08;;;8.05;;
43042;SDS011;28667;50.758;6.096;2023-02-15T01:40:00;21.60;;;8.85;;
43042;SDS011;28667;50.758;6.096;2023-02-15T01:42:27;22.73;;;9.93;;
43042;SDS011;28667;50.758;6.096;2023-02-15T01:44:58;22.17;;;9.38;;
43042;SDS011;28667;50.758;6.096;2023-02-15T01:47:36;19.95;;;9.75;;
43042;SDS011;28667;50.758;6.096;2023-02-15T01:52:55;21.25;;;8.70;;
43042;SDS011;28667;50.758;6.096;2023-02-15T01:55:27;22.40;;;8.32;;
43042;SDS011;28667;50.758;6.096;2023-02-15T01:57:59;20.17;;;8.82;;
43042;SDS011;28667;50.758;6.096;2023-02-15T02:00:26;15.85;;;7.68;;
43042;SDS011;28667;50.758;6.096;2023-02-15T02:02:53;19.85;;;7.63;;
43042;SDS011;28667;50.758;6.096;2023-02-15T02:05:24;17.45;;;7.07;;
43042;SDS011;28667;50.758;6.096;2023-02-15T02:07:51;16.83;;;7.45;;
43042;SDS011;28667;50.758;6.096;2023-02-15T02:10:20;33.53;;;9.05;;
43042;SDS011;28667;50.758;6.096;2023-02-15T02:12:49;20.38;;;8.00;;
43042;SDS011;28667;50.758;6.096;2023-02-15T02:15:19;24.98;;;8.82;;
43042;SDS011;28667;50.758;6.096;2023-02-15T02:20:46;19.10;;;8.23;;
43042;SDS011;28667;50.758;6.096;2023-02-15T02:23:23;19.40;;;7.45;;
43042;SDS011;28667;50.758;6.096;2023-02-15T02:34:55;15.65;;;7.10;;
43042;SDS011;28667;50.758;6.096;2023-02-15T02:37:28;16.00;;;7.25;;
43042;SDS011;28667;50.758;6.096;2023-02-15T02:45:11;21.23;;;8.55;;
43042;SDS011;28667;50.758;6.096;2023-02-15T02:47:51;20.83;;;9.00;;
43042;SDS011;28667;50.758;6.096;2023-02-15T02:50:26;15.93;;;7.38;;
43042;SDS011;28667;50.758;6.096;2023-02-15T02:52:54;18.88;;;7.57;;
43042;SDS011;28667;50.758;6.096;2023-02-15T03:00:55;17.13;;;6.38;;
43042;SDS011;28667;50.758;6.096;2023-02-15T03:03:28;12.85;;;5.97;;
43042;SDS011;28667;50.758;6.096;2023-02-15T03:05:56;17.00;;;6.72;;
43042;SDS011;28667;50.758;6.096;2023-02-15T03:08:25;13.02;;;6.65;;
43042;SDS011;28667;50.758;6.096;2023-02-15T03:10:57;15.80;;;5.47;;
43042;SDS011;28667;50.758;6.096;2023-02-15T03:13:25;15.32;;;5.63;;
43042;SDS011;28667;50.758;6.096;2023-02-15T03:15:52;10.10;;;5.72;;
43042;SDS011;28667;50.758;6.096;2023-02-15T03:18:39;7.70;;;5.07;;
43042;SDS011;28667;50.758;6.096;2023-02-15T03:21:09;19.13;;;6.65;;
43042;SDS011;28667;50.758;6.096;2023-02-15T03:23:49;15.65;;;5.75;;
43042;SDS011;28667;50.758;6.096;2023-02-15T03:26:20;15.25;;;5.72;;
43042;SDS011;28667;50.758;6.096;2023-02-15T03:28:47;17.75;;;6.18;;
43042;SDS011;28667;50.758;6.096;2023-02-15T03:31:16;13.77;;;6.38;;
43042;SDS011;28667;50.758;6.096;2023-02-15T03:33:49;11.40;;;5.60;;
43042;SDS011;28667;50.758;6.096;2023-02-15T03:36:26;16.98;;;6.68;;
43042;SDS011;28667;50.758;6.096;2023-02-15T03:39:13;11.55;;;5.18;;
43042;SDS011;28667;50.758;6.096;2023-02-15T03:44:46;13.82;;;6.47;;
43042;SDS011;28667;50.758;6.096;2023-02-15T03:47:19;12.48;;;6.47;;
43042;SDS011;28667;50.758;6.096;2023-02-15T03:49:50;14.55;;;6.30;;
43042;SDS011;28667;50.758;6.096;2023-02-15T03:52:24;16.00;;;6.68;;
43042;SDS011;28667;50.758;6.096;2023-02-15T03:54:52;15.38;;;5.85;;
43042;SDS011;28667;50.758;6.096;2023-02-15T03:57:19;10.82;;;5.60;;
43042;SDS011;28667;50.758;6.096;2023-02-15T04:00:12;12.57;;;5.60;;
43042;SDS011;28667;50.758;6.096;2023-02-15T04:03:01;12.07;;;5.80;;
43042;SDS011;28667;50.758;6.096;2023-02-15T04:05:40;12.52;;;5.45;;
43042;SDS011;28667;50.758;6.096;2023-02-15T04:08:07;13.02;;;5.82;;
43042;SDS011;28667;50.758;6.096;2023-02-15T04:10:33;10.75;;;4.82;;
43042;SDS011;28667;50.758;6.096;2023-02-15T04:13:18;9.77;;;5.15;;
43042;SDS011;28667;50.758;6.096;2023-02-15T04:15:45;11.27;;;4.75;;
43042;SDS011;28667;50.758;6.096;2023-02-15T04:18:36;10.60;;;5.45;;
43042;SDS011;28667;50.758;6.096;2023-02-15T04:21:25;9.27;;;5.15;;
43042;SDS011;28667;50.758;6.096;2023-02-15T04:24:10;10.07;;;4.72;;
43042;SDS011;28667;50.758;6.096;2023-02-15T04:29:22;7.60;;;3.95;;
43042;SDS011;28667;50.758;6.096;2023-02-15T04:31:49;9.50;;;4.40;;
43042;SDS011;28667;50.758;6.096;2023-02-15T04:34:16;8.07;;;4.13;;
43042;SDS011;28667;50.758;6.096;2023-02-15T04:36:41;8.55;;;4.65;;
43042;SDS011;28667;50.758;6.096;2023-02-15T04:39:08;6.72;;;3.42;;
43042;SDS011;28667;50.758;6.096;2023-02-15T04:41:34;12.85;;;5.30;;
43042;SDS011;28667;50.758;6.096;2023-02-15T04:44:00;12.85;;;4.40;;
43042;SDS011;28667;50.758;6.096;2023-02-15T04:46:26;7.70;;;3.67;;
43042;SDS011;28667;50.758;6.096;2023-02-15T04:48:53;8.52;;;3.88;;
43042;SDS011;28667;50.758;6.096;2023-02-15T04:51:19;10.98;;;3.90;;
43042;SDS011;28667;50.758;6.096;2023-02-15T04:53:45;6.28;;;3.58;;
43042;SDS011;28667;50.758;6.096;2023-02-15T04:56:10;6.95;;;3.75;;
43042;SDS011;28667;50.758;6.096;2023-02-15T04:58:36;7.07;;;3.47;;
43042;SDS011;28667;50.758;6.096;2023-02-15T05:01:06;10.10;;;3.40;;
43042;SDS011;28667;50.758;6.096;2023-02-15T05:03:35;5.45;;;3.10;;
43042;SDS011;28667;50.758;6.096;2023-02-15T05:06:01;5.25;;;2.67;;
43042;SDS011;28667;50.758;6.096;2023-02-15T05:08:28;6.40;;;3.50;;
43042;SDS011;28667;50.758;6.096;2023-02-15T05:10:53;8.85;;;3.38;;
43042;SDS011;28667;50.758;6.096;2023-02-15T05:13:19;3.95;;;2.67;;
43042;SDS011;28667;50.758;6.096;2023-02-15T05:15:48;3.50;;;2.72;;
43042;SDS011;28667;50.758;6.096;2023-02-15T05:18:15;6.85;;;3.63;;
43042;SDS011;28667;50.758;6.096;2023-02-15T05:20:42;5.28;;;3.30;;
43042;SDS011;28667;50.758;6.096;2023-02-15T05:23:08;5.53;;;3.35;;
43042;SDS011;28667;50.758;6.096;2023-02-15T05:25:34;4.32;;;3.03;;
43042;SDS011;28667;50.758;6.096;2023-02-15T05:28:18;8.48;;;3.53;;
43042;SDS011;28667;50.758;6.096;2023-02-15T05:30:44;4.05;;;2.70;;
43042;SDS011;28667;50.758;6.096;2023-02-15T05:33:14;5.45;;;2.47;;
43042;SDS011;28667;50.758;6.096;2023-02-15T05:35:40;6.88;;;2.88;;
43042;SDS011;28667;50.758;6.096;2023-02-15T05:38:06;7.97;;;2.95;;
43042;SDS011;28667;50.758;6.096;2023-02-15T05:40:32;5.22;;;2.78;;
43042;SDS011;28667;50.758;6.096;2023-02-15T05:42:57;4.38;;;2.35;;
43042;SDS011;28667;50.758;6.096;2023-02-15T05:45:23;3.75;;;2.53;;
43042;SDS011;28667;50.758;6.096;2023-02-15T05:47:49;7.60;;;3.00;;
43042;SDS011;28667;50.758;6.096;2023-02-15T05:50:15;3.13;;;2.45;;
43042;SDS011;28667;50.758;6.096;2023-02-15T05:52:41;4.50;;;3.40;;
43042;SDS011;28667;50.758;6.096;2023-02-15T05:55:06;4.18;;;2.80;;
43042;SDS011;28667;50.758;6.096;2023-02-15T05:57:34;8.43;;;3.40;;
43042;SDS011;28667;50.758;6.096;2023-02-15T06:00:00;4.80;;;2.22;;
43042;SDS011;28667;50.758;6.096;2023-02-15T06:02:36;4.28;;;2.65;;
43042;SDS011;28667;50.758;6.096;2023-02-15T06:05:03;6.20;;;2.78;;
43042;SDS011;28667;50.758;6.096;2023-02-15T06:07:30;6.85;;;3.70;;
43042;SDS011;28667;50.758;6.096;2023-02-15T06:09:56;7.60;;;2.67;;
43042;SDS011;28667;50.758;6.096;2023-02-15T06:12:21;4.13;;;3.22;;
43042;SDS011;28667;50.758;6.096;2023-02-15T06:14:47;6.10;;;2.63;;
43042;SDS011;28667;50.758;6.096;2023-02-15T06:17:13;5.75;;;3.20;;
43042;SDS011;28667;50.758;6.096;2023-02-15T06:19:39;3.15;;;2.58;;
43042;SDS011;28667;50.758;6.096;2023-02-15T06:22:04;4.68;;;2.97;;
43042;SDS011;28667;50.758;6.096;2023-02-15T06:24:31;4.82;;;2.53;;
43042;SDS011;28667;50.758;6.096;2023-02-15T06:26:57;3.92;;;2.80;;
43042;SDS011;28667;50.758;6.096;2023-02-15T06:29:23;4.60;;;2.83;;
43042;SDS011;28667;50.758;6.096;2023-02-15T06:31:48;6.43;;;2.22;;
43042;SDS011;28667;50.758;6.096;2023-02-15T06:34:14;5.35;;;2.55;;
43042;SDS011;28667;50.758;6.096;2023-02-15T06:36:40;3.67;;;2.22;;
43042;SDS011;28667;50.758;6.096;2023-02-15T06:39:06;5.13;;;2.80;;
43042;SDS011;28667;50.758;6.096;2023-02-15T06:41:32;5.68;;;3.05;;
43042;SDS011;28667;50.758;6.096;2023-02-15T06:43:57;7.13;;;3.08;;
43042;SDS011;28667;50.758;6.096;2023-02-15T06:46:23;6.53;;;2.85;;
43042;SDS011;28667;50.758;6.096;2023-02-15T06:48:49;4.68;;;2.17;;
43042;SDS011;28667;50.758;6.096;2023-02-15T06:51:14;4.80;;;2.17;;
43042;SDS011;28667;50.758;6.096;2023-02-15T06:53:40;6.07;;;2.95;;
43042;SDS011;28667;50.758;6.096;2023-02-15T06:56:08;4.25;;;2.45;;
43042;SDS011;28667;50.758;6.096;2023-02-15T06:58:34;7.70;;;3.15;;
43042;SDS011;28667;50.758;6.096;2023-02-15T07:01:01;7.07;;;3.45;;
43042;SDS011;28667;50.758;6.096;2023-02-15T07:03:26;6.72;;;2.55;;
43042;SDS011;28667;50.758;6.096;2023-02-15T07:05:55;8.10;;;3.03;;
43042;SDS011;28667;50.758;6.096;2023-02-15T07:08:23;5.15;;;3.17;;
43042;SDS011;28667;50.758;6.096;2023-02-15T07:10:50;5.40;;;2.58;;
43042;SDS011;28667;50.758;6.096;2023-02-15T07:13:16;5.32;;;2.95;;
43042;SDS011;28667;50.758;6.096;2023-02-15T07:15:42;4.13;;;2.35;;
43042;SDS011;28667;50.758;6.096;2023-02-15T07:18:09;6.22;;;2.95;;
43042;SDS011;28667;50.758;6.096;2023-02-15T07:20:36;7.05;;;2.45;;
43042;SDS011;28667;50.758;6.096;2023-02-15T07:23:02;5.82;;;3.90;;
43042;SDS011;28667;50.758;6.096;2023-02-15T07:25:29;5.90;;;3.10;;
43042;SDS011;28667;50.758;6.096;2023-02-15T07:27:59;5.78;;;3.05;;
43042;SDS011;28667;50.758;6.096;2023-02-15T07:30:25;8.60;;;3.17;;
43042;SDS011;28667;50.758;6.096;2023-02-15T07:32:55;7.13;;;3.47;;
43042;SDS011;28667;50.758;6.096;2023-02-15T07:35:47;10.75;;;3.50;;
43042;SDS011;28667;50.758;6.096;2023-02-15T07:38:13;4.07;;;2.92;;
43042;SDS011;28667;50.758;6.096;2023-02-15T07:40:39;5.60;;;2.55;;
43042;SDS011;28667;50.758;6.096;2023-02-15T07:43:05;5.65;;;3.10;;
43042;SDS011;28667;50.758;6.096;2023-02-15T07:45:31;7.03;;;3.28;;
43042;SDS011;28667;50.758;6.096;2023-02-15T07:47:56;5.03;;;2.97;;
43042;SDS011;28667;50.758;6.096;2023-02-15T07:50:22;7.88;;;2.85;;
43042;SDS011;28667;50.758;6.096;2023-02-15T07:52:48;7.90;;;3.63;;
43042;SDS011;28667;50.758;6.096;2023-02-15T07:55:14;5.70;;;2.90;;
43042;SDS011;28667;50.758;6.096;2023-02-15T07:57:43;4.40;;;2.80;;
43042;SDS011;28667;50.758;6.096;2023-02-15T08:00:10;5.03;;;2.95;;
43042;SDS011;28667;50.758;6.096;2023-02-15T08:02:40;6.20;;;3.00;;
43042;SDS011;28667;50.758;6.096;2023-02-15T08:05:06;8.48;;;3.83;;
43042;SDS011;28667;50.758;6.096;2023-02-15T08:07:32;5.82;;;3.60;;
43042;SDS011;28667;50.758;6.096;2023-02-15T08:09:58;5.82;;;3.45;;
43042;SDS011;28667;50.758;6.096;2023-02-15T08:12:27;7.88;;;2.88;;
43042;SDS011;28667;50.758;6.096;2023-02-15T08:14:53;4.55;;;2.88;;
43042;SDS011;28667;50.758;6.096;2023-02-15T08:17:19;4.30;;;3.17;;
43042;SDS011;28667;50.758;6.096;2023-02-15T08:19:44;5.03;;;3.17;;
43042;SDS011;28667;50.758;6.096;2023-02-15T08:22:12;6.65;;;3.40;;
43042;SDS011;28667;50.758;6.096;2023-02-15T08:24:39;9.57;;;3.35;;
43042;SDS011;28667;50.758;6.096;2023-02-15T08:27:07;6.15;;;3.15;;
43042;SDS011;28667;50.758;6.096;2023-02-15T08:29:34;5.20;;;3.42;;
43042;SDS011;28667;50.758;6.096;2023-02-15T08:32:06;9.63;;;4.35;;
43042;SDS011;28667;50.758;6.096;2023-02-15T08:34:35;6.60;;;2.97;;
43042;SDS011;28667;50.758;6.096;2023-02-15T08:37:03;7.63;;;2.97;;
43042;SDS011;28667;50.758;6.096;2023-02-15T08:39:29;5.28;;;3.50;;
43042;SDS011;28667;50.758;6.096;2023-02-15T08:41:54;10.75;;;4.65;;
43042;SDS011;28667;50.758;6.096;2023-02-15T08:44:20;11.05;;;4.20;;
43042;SDS011;28667;50.758;6.096;2023-02-15T08:46:47;9.73;;;4.28;;
43042;SDS011;28667;50.758;6.096;2023-02-15T08:49:17;9.88;;;4.28;;
43042;SDS011;28667;50.758;6.096;2023-02-15T08:51:44;6.93;;;4.35;;
43042;SDS011;28667;50.758;6.096;2023-02-15T08:54:15;10.77;;;4.88;;
43042;SDS011;28667;50.758;6.096;2023-02-15T08:56:42;10.00;;;4.82;;
43042;SDS011;28667;50.758;6.096;2023-02-15T08:59:14;10.50;;;4.70;;
43042;SDS011;28667;50.758;6.096;2023-02-15T09:01:41;11.90;;;4.40;;
43042;SDS011;28667;50.758;6.096;2023-02-15T09:04:08;10.45;;;4.55;;
43042;SDS011;28667;50.758;6.096;2023-02-15T09:06:34;8.95;;;3.53;;
43042;SDS011;28667;50.758;6.096;2023-02-15T09:09:01;7.68;;;4.22;;
43042;SDS011;28667;50.758;6.096;2023-02-15T09:11:29;9.25;;;5.03;;
43042;SDS011;28667;50.758;6.096;2023-02-15T09:13:59;7.00;;;3.90;;
43042;SDS011;28667;50.758;6.096;2023-02-15T09:16:27;7.32;;;3.67;;
43042;SDS011;28667;50.758;6.096;2023-02-15T09:18:55;9.30;;;4.05;;
43042;SDS011;28667;50.758;6.096;2023-02-15T09:21:30;5.47;;;4.07;;
43042;SDS011;28667;50.758;6.096;2023-02-15T09:24:00;8.77;;;4.28;;
43042;SDS011;28667;50.758;6.096;2023-02-15T09:26:29;7.90;;;4.38;;
43042;SDS011;28667;50.758;6.096;2023-02-15T09:28:57;8.05;;;4.35;;
43042;SDS011;28667;50.758;6.096;2023-02-15T09:31:25;6.80;;;4.10;;
43042;SDS011;28667;50.758;6.096;2023-02-15T09:33:53;12.13;;;5.32;;
43042;SDS011;28667;50.758;6.096;2023-02-15T09:38:58;9.15;;;5.15;;
43042;SDS011;28667;50.758;6.096;2023-02-15T10:21:00;12.30;;;4.35;;
43042;SDS011;28667;50.758;6.096;2023-02-15T10:23:49;9.95;;;3.88;;
43042;SDS011;28667;50.758;6.096;2023-02-15T10:26:24;8.27;;;4.32;;
43042;SDS011;28667;50.758;6.096;2023-02-15T10:31:48;9.23;;;4.72;;
43042;SDS011;28667;50.758;6.096;2023-02-15T10:34:16;8.52;;;4.10;;
43042;SDS011;28667;50.758;6.096;2023-02-15T10:42:29;10.20;;;3.97;;
43042;SDS011;28667;50.758;6.096;2023-02-15T10:47:53;4.50;;;2.70;;
43042;SDS011;28667;50.758;6.096;2023-02-15T10:50:32;4.93;;;2.88;;
43042;SDS011;28667;50.758;6.096;2023-02-15T10:53:16;5.60;;;2.67;;
43042;SDS011;28667;50.758;6.096;2023-02-15T10:56:02;7.13;;;3.30;;
43042;SDS011;28667;50.758;6.096;2023-02-15T11:01:16;9.93;;;3.90;;
43042;SDS011;28667;50.758;6.096;2023-02-15T11:03:52;7.03;;;3.83;;
43042;SDS011;28667;50.758;6.096;2023-02-15T11:06:43;4.97;;;2.47;;
43042;SDS011;28667;50.758;6.096;2023-02-15T11:11:44;5.93;;;3.50;;
43042;SDS011;28667;50.758;6.096;2023-02-15T11:14:27;5.88;;;3.70;;
43042;SDS011;28667;50.758;6.096;2023-02-15T11:17:12;5.45;;;3.05;;
43042;SDS011;28667;50.758;6.096;2023-02-15T11:23:01;9.25;;;3.70;;
43042;SDS011;28667;50.758;6.096;2023-02-15T11:25:29;6.55;;;2.63;;
43042;SDS011;28667;50.758;6.096;2023-02-15T11:27:56;7.40;;;3.47;;
43042;SDS011;28667;50.758;6.096;2023-02-15T11:33:16;9.55;;;3.83;;
43042;SDS011;28667;50.758;6.096;2023-02-15T11:36:09;8.75;;;3.42;;
43042;SDS011;28667;50.758;6.096;2023-02-15T11:38:36;5.60;;;2.85;;
43042;SDS011;28667;50.758;6.096;2023-02-15T11:41:14;7.75;;;2.80;;
43042;SDS011;28667;50.758;6.096;2023-02-15T11:43:47;6.15;;;2.67;;
43042;SDS011;28667;50.758;6.096;2023-02-15T11:46:18;6.72;;;3.10;;
43042;SDS011;28667;50.758;6.096;2023-02-15T11:48:46;7.30;;;2.72;;
43042;SDS011;28667;50.758;6.096;2023-02-15T11:51:14;5.85;;;2.60;;
43042;SDS011;28667;50.758;6.096;2023-02-15T11:53:41;6.40;;;2.97;;
43042;SDS011;28667;50.758;6.096;2023-02-15T11:56:16;5.88;;;3.53;;
43042;SDS011;28667;50.758;6.096;2023-02-15T11:58:50;5.15;;;2.80;;
43042;SDS011;28667;50.758;6.096;2023-02-15T12:09:44;10.90;;;4.90;;
43042;SDS011;28667;50.758;6.096;2023-02-15T12:14:57;10.55;;;5.30;;
43042;SDS011;28667;50.758;6.096;2023-02-15T12:17:28;12.93;;;5.18;;
43042;SDS011;28667;50.758;6.096;2023-02-15T12:19:57;8.75;;;4.68;;
43042;SDS011;28667;50.758;6.096;2023-02-15T12:22:27;7.28;;;4.53;;
43042;SDS011;28667;50.758;6.096;2023-02-15T12:25:19;10.68;;;5.13;;
43042;SDS011;28667;50.758;6.096;2023-02-15T12:27:45;10.27;;;5.15;;
43042;SDS011;28667;50.758;6.096;2023-02-15T12:32:53;11.80;;;5.22;;
43042;SDS011;28667;50.758;6.096;2023-02-15T12:38:03;6.60;;;3.45;;
43042;SDS011;28667;50.758;6.096;2023-02-15T12:40:36;6.55;;;3.83;;
43042;SDS011;28667;50.758;6.096;2023-02-15T12:43:03;7.70;;;3.80;;
43042;SDS011;28667;50.758;6.096;2023-02-15T12:45:37;8.70;;;4.28;;
43042;SDS011;28667;50.758;6.096;2023-02-15T12:50:51;8.40;;;3.70;;
43042;SDS011;28667;50.758;6.096;2023-02-15T12:53:50;7.60;;;4.30;;
43042;SDS011;28667;50.758;6.096;2023-02-15T12:56:09;7.63;;;4.13;;
43042;SDS011;28667;50.758;6.096;2023-02-15T12:58:39;6.35;;;3.85;;
43042;SDS011;28667;50.758;6.096;2023-02-15T13:03:34;9.13;;;4.88;;
43042;SDS011;28667;50.758;6.096;2023-02-15T13:06:03;13.98;;;4.72;;
43042;SDS011;28667;50.758;6.096;2023-02-15T13:08:39;10.02;;;4.50;;
43042;SDS011;28667;50.758;6.096;2023-02-15T13:11:19;7.15;;;3.92;;
43042;SDS011;28667;50.758;6.096;2023-02-15T13:16:19;9.50;;;4.10;;
43042;SDS011;28667;50.758;6.096;2023-02-15T13:18:53;9.15;;;5.00;;
43042;SDS011;28667;50.758;6.096;2023-02-15T13:21:20;9.38;;;4.07;;
43042;SDS011;28667;50.758;6.096;2023-02-15T13:23:52;9.45;;;4.20;;
43042;SDS011;28667;50.758;6.096;2023-02-15T13:26:23;9.55;;;4.18;;
43042;SDS011;28667;50.758;6.096;2023-02-15T13:28:55;7.97;;;4.50;;
43042;SDS011;28667;50.758;6.096;2023-02-15T13:31:24;7.72;;;3.90;;
43042;SDS011;28667;50.758;6.096;2023-02-15T13:34:00;8.88;;;4.13;;
43042;SDS011;28667;50.758;6.096;2023-02-15T13:39:28;7.60;;;4.32;;
43042;SDS011;28667;50.758;6.096;2023-02-15T13:47:21;9.18;;;4.75;;
43042;SDS011;28667;50.758;6.096;2023-02-15T13:52:58;10.05;;;4.43;;
43042;SDS011;28667;50.758;6.096;2023-02-15T14:00:57;15.25;;;5.95;;
43042;SDS011;28667;50.758;6.096;2023-02-15T14:06:14;12.77;;;5.93;;
43042;SDS011;28667;50.758;6.096;2023-02-15T14:18:18;12.40;;;6.05;;
43042;SDS011;28667;50.758;6.096;2023-02-15T14:20:25;15.20;;;5.65;;
43042;SDS011;28667;50.758;6.096;2023-02-15T14:31:21;12.48;;;6.53;;
43042;SDS011;28667;50.758;6.096;2023-02-15T14:36:21;16.80;;;6.28;;
43042;SDS011;28667;50.758;6.096;2023-02-15T14:42:12;19.52;;;7.95;;
43042;SDS011;28667;50.758;6.096;2023-02-15T14:44:51;16.52;;;7.25;;
43042;SDS011;28667;50.758;6.096;2023-02-15T14:47:42;15.30;;;7.60;;
43042;SDS011;28667;50.758;6.096;2023-02-15T14:55:46;19.83;;;7.35;;
43042;SDS011;28667;50.758;6.096;2023-02-15T14:58:12;17.13;;;7.63;;
43042;SDS011;28667;50.758;6.096;2023-02-15T15:00:39;20.33;;;8.25;;
43042;SDS011;28667;50.758;6.096;2023-02-15T15:03:18;17.80;;;7.57;;
43042;SDS011;28667;50.758;6.096;2023-02-15T15:05:50;16.88;;;7.47;;
43042;SDS011;28667;50.758;6.096;2023-02-15T15:08:26;16.60;;;7.43;;
43042;SDS011;28667;50.758;6.096;2023-02-15T15:10:54;15.90;;;6.90;;
43042;SDS011;28667;50.758;6.096;2023-02-15T15:15:55;19.25;;;7.95;;
43042;SDS011;28667;50.758;6.096;2023-02-15T15:32:40;16.10;;;6.50;;
43042;SDS011;28667;50.758;6.096;2023-02-15T15:35:33;18.45;;;6.90;;
43042;SDS011;28667;50.758;6.096;2023-02-15T15:43:40;16.00;;;7.30;;
43042;SDS011;28667;50.758;6.096;2023-02-15T15:46:15;21.75;;;8.05;;
43042;SDS011;28667;50.758;6.096;2023-02-15T15:49:05;14.88;;;7.35;;
43042;SDS011;28667;50.758;6.096;2023-02-15T15:51:59;20.67;;;8.43;;
43042;SDS011;28667;50.758;6.096;2023-02-15T15:54:28;16.83;;;7.57;;
43042;SDS011;28667;50.758;6.096;2023-02-15T15:56:56;13.55;;;7.20;;
43042;SDS011;28667;50.758;6.096;2023-02-15T15:59:26;21.92;;;8.05;;
43042;SDS011;28667;50.758;6.096;2023-02-15T16:01:54;19.00;;;8.50;;
43042;SDS011;28667;50.758;6.096;2023-02-15T16:04:24;17.45;;;7.85;;
43042;SDS011;28667;50.758;6.096;2023-02-15T16:06:52;15.30;;;8.43;;
43042;SDS011;28667;50.758;6.096;2023-02-15T16:09:23;18.58;;;7.25;;
43042;SDS011;28667;50.758;6.096;2023-02-15T16:11:54;15.27;;;7.00;;
43042;SDS011;28667;50.758;6.096;2023-02-15T16:14:35;20.05;;;8.48;;
43042;SDS011;28667;50.758;6.096;2023-02-15T16:17:04;16.75;;;7.82;;
43042;SDS011;28667;50.758;6.096;2023-02-15T16:19:32;22.60;;;8.18;;
43042;SDS011;28667;50.758;6.096;2023-02-15T16:22:01;14.38;;;6.75;;
43042;SDS011;28667;50.758;6.096;2023-02-15T16:24:33;22.60;;;8.13;;
43042;SDS011;28667;50.758;6.096;2023-02-15T16:29:34;20.45;;;8.10;;
43042;SDS011;28667;50.758;6.096;2023-02-15T16:32:04;15.88;;;7.88;;
43042;SDS011;28667;50.758;6.096;2023-02-15T16:34:50;16.90;;;7.25;;
43042;SDS011;28667;50.758;6.096;2023-02-15T16:37:18;21.27;;;7.97;;
43042;SDS011;28667;50.758;6.096;2023-02-15T16:39:48;16.02;;;7.90;;
43042;SDS011;28667;50.758;6.096;2023-02-15T16:42:15;21.05;;;7.75;;
43042;SDS011;28667;50.758;6.096;2023-02-15T16:44:43;19.77;;;7.18;;
43042;SDS011;28667;50.758;6.096;2023-02-15T16:47:33;12.80;;;5.85;;
43042;SDS011;28667;50.758;6.096;2023-02-15T16:50:05;17.85;;;7.00;;
43042;SDS011;28667;50.758;6.096;2023-02-15T16:52:41;14.18;;;6.75;;
43042;SDS011;28667;50.758;6.096;2023-02-15T16:55:17;21.67;;;8.38;;
43042;SDS011;28667;50.758;6.096;2023-02-15T16:57:49;17.55;;;7.80;;
43042;SDS011;28667;50.758;6.096;2023-02-15T17:00:18;19.10;;;7.22;;
43042;SDS011;28667;50.758;6.096;2023-02-15T17:02:58;15.43;;;6.50;;
43042;SDS011;28667;50.758;6.096;2023-02-15T17:05:30;17.63;;;6.72;;
43042;SDS011;28667;50.758;6.096;2023-02-15T17:11:18;16.23;;;7.53;;
43042;SDS011;28667;50.758;6.096;2023-02-15T17:16:33;12.07;;;6.82;;
43042;SDS011;28667;50.758;6.096;2023-02-15T17:19:02;18.17;;;6.10;;
43042;SDS011;28667;50.758;6.096;2023-02-15T17:21:41;18.42;;;8.20;;
43042;SDS011;28667;50.758;6.096;2023-02-15T17:24:17;20.92;;;8.48;;
43042;SDS011;28667;50.758;6.096;2023-02-15T17:26:54;19.42;;;7.35;;
43042;SDS011;28667;50.758;6.096;2023-02-15T17:29:33;19.80;;;7.28;;
43042;SDS011;28667;50.758;6.096;2023-02-15T17:32:02;16.38;;;7.18;;
43042;SDS011;28667;50.758;6.096;2023-02-15T17:40:07;19.20;;;6.88;;
43042;SDS011;28667;50.758;6.096;2023-02-15T17:42:43;17.95;;;6.85;;
43042;SDS011;28667;50.758;6.096;2023-02-15T17:45:09;18.00;;;7.05;;
43042;SDS011;28667;50.758;6.096;2023-02-15T17:47:34;13.63;;;6.50;;
43042;SDS011;28667;50.758;6.096;2023-02-15T17:50:01;24.38;;;7.80;;
43042;SDS011;28667;50.758;6.096;2023-02-15T17:52:29;18.85;;;7.07;;
43042;SDS011;28667;50.758;6.096;2023-02-15T17:54:56;18.25;;;7.18;;
43042;SDS011;28667;50.758;6.096;2023-02-15T17:57:40;22.40;;;8.73;;
43042;SDS011;28667;50.758;6.096;2023-02-15T18:00:06;17.40;;;6.85;;
43042;SDS011;28667;50.758;6.096;2023-02-15T18:02:51;24.00;;;7.65;;
43042;SDS011;28667;50.758;6.096;2023-02-15T18:05:36;21.00;;;8.38;;
43042;SDS011;28667;50.758;6.096;2023-02-15T18:08:22;26.00;;;8.52;;
43042;SDS011;28667;50.758;6.096;2023-02-15T18:11:10;22.17;;;8.13;;
43042;SDS011;28667;50.758;6.096;2023-02-15T18:13:55;17.35;;;9.13;;
43042;SDS011;28667;50.758;6.096;2023-02-15T18:16:25;17.52;;;7.65;;
43042;SDS011;28667;50.758;6.096;2023-02-15T18:18:54;22.75;;;8.40;;
43042;SDS011;28667;50.758;6.096;2023-02-15T18:21:22;21.17;;;7.68;;
43042;SDS011;28667;50.758;6.096;2023-02-15T18:23:48;21.80;;;8.82;;
43042;SDS011;28667;50.758;6.096;2023-02-15T18:26:21;18.70;;;7.32;;